sensor_id;sensor_type;location;lat;lon;timestamp;P1;durP1;ratioP1;P2;durP2;ratioP2
62610;SDS011;48683;48.084;17.272;2023-05-10T00:01:22;5.10;;;3.55;;
62610;SDS011;48683;48.084;17.272;2023-05-10T00:03:47;8.10;;;3.70;;
62610;SDS011;48683;48.084;17.272;2023-05-10T00:06:12;4.53;;;3.55;;
62610;SDS011;48683;48.084;17.272;2023-05-10T00:08:38;5.55;;;3.88;;
62610;SDS011;48683;48.084;17.272;2023-05-10T00:11:03;6.20;;;3.25;;
62610;SDS011;48683;48.084;17.272;2023-05-10T00:13:29;4.00;;;3.60;;
62610;SDS011;48683;48.084;17.272;2023-05-10T00:15:54;4.95;;;3.50;;
62610;SDS011;48683;48.084;17.272;2023-05-10T00:18:20;5.93;;;4.22;;
62610;SDS011;48683;48.084;17.272;2023-05-10T00:20:45;4.22;;;3.38;;
62610;SDS011;48683;48.084;17.272;2023-05-10T00:23:11;5.22;;;3.47;;
62610;SDS011;48683;48.084;17.272;2023-05-10T00:25:36;3.90;;;3.33;;
62610;SDS011;48683;48.084;17.272;2023-05-10T00:28:02;5.90;;;3.88;;
62610;SDS011;48683;48.084;17.272;2023-05-10T00:30:27;6.88;;;3.78;;
62610;SDS011;48683;48.084;17.272;2023-05-10T00:32:53;4.95;;;3.33;;
62610;SDS011;48683;48.084;17.272;2023-05-10T00:35:18;8.10;;;3.85;;
62610;SDS011;48683;48.084;17.272;2023-05-10T00:37:43;4.47;;;3.63;;
62610;SDS011;48683;48.084;17.272;2023-05-10T00:40:10;3.97;;;3.53;;
62610;SDS011;48683;48.084;17.272;2023-05-10T00:42:36;7.95;;;3.35;;
62610;SDS011;48683;48.084;17.272;2023-05-10T00:45:01;5.43;;;3.88;;
62610;SDS011;48683;48.084;17.272;2023-05-10T00:47:26;4.35;;;3.95;;
62610;SDS011;48683;48.084;17.272;2023-05-10T00:49:52;4.70;;;3.87;;
62610;SDS011;48683;48.084;17.272;2023-05-10T00:52:18;6.53;;;3.50;;
62610;SDS011;48683;48.084;17.272;2023-05-10T00:54:44;4.78;;;3.67;;
62610;SDS011;48683;48.084;17.272;2023-05-10T00:57:09;5.90;;;3.25;;
62610;SDS011;48683;48.084;17.272;2023-05-10T00:59:35;3.73;;;3.33;;
62610;SDS011;48683;48.084;17.272;2023-05-10T01:02:01;5.82;;;3.40;;
62610;SDS011;48683;48.084;17.272;2023-05-10T01:04:26;5.22;;;3.38;;
62610;SDS011;48683;48.084;17.272;2023-05-10T01:06:53;3.80;;;3.40;;
62610;SDS011;48683;48.084;17.272;2023-05-10T01:09:19;4.03;;;3.50;;
62610;SDS011;48683;48.084;17.272;2023-05-10T01:11:45;5.38;;;3.72;;
62610;SDS011;48683;48.084;17.272;2023-05-10T01:14:11;4.75;;;3.72;;
62610;SDS011;48683;48.084;17.272;2023-05-10T01:16:37;5.10;;;3.90;;
62610;SDS011;48683;48.084;17.272;2023-05-10T01:19:37;9.18;;;3.60;;
62610;SDS011;48683;48.084;17.272;2023-05-10T01:30:22;4.07;;;3.67;;
62610;SDS011;48683;48.084;17.272;2023-05-10T01:33:12;7.90;;;3.92;;
62610;SDS011;48683;48.084;17.272;2023-05-10T01:36:03;4.90;;;3.47;;
62610;SDS011;48683;48.084;17.272;2023-05-10T01:46:53;4.28;;;3.60;;
62610;SDS011;48683;48.084;17.272;2023-05-10T01:49:26;7.20;;;4.45;;
62610;SDS011;48683;48.084;17.272;2023-05-10T01:51:59;4.82;;;3.90;;
62610;SDS011;48683;48.084;17.272;2023-05-10T01:54:29;6.03;;;3.95;;
62610;SDS011;48683;48.084;17.272;2023-05-10T01:56:57;4.65;;;3.70;;
62610;SDS011;48683;48.084;17.272;2023-05-10T01:59:29;4.53;;;3.85;;
62610;SDS011;48683;48.084;17.272;2023-05-10T02:02:01;6.63;;;3.92;;
62610;SDS011;48683;48.084;17.272;2023-05-10T02:04:27;5.00;;;4.50;;
62610;SDS011;48683;48.084;17.272;2023-05-10T02:06:53;5.85;;;4.00;;
62610;SDS011;48683;48.084;17.272;2023-05-10T02:09:19;5.90;;;3.65;;
62610;SDS011;48683;48.084;17.272;2023-05-10T02:11:46;6.70;;;4.50;;
62610;SDS011;48683;48.084;17.272;2023-05-10T02:14:14;7.55;;;4.07;;
62610;SDS011;48683;48.084;17.272;2023-05-10T02:16:40;5.30;;;4.20;;
62610;SDS011;48683;48.084;17.272;2023-05-10T02:19:07;6.03;;;4.13;;
62610;SDS011;48683;48.084;17.272;2023-05-10T02:21:33;7.65;;;4.38;;
62610;SDS011;48683;48.084;17.272;2023-05-10T02:24:00;5.72;;;4.03;;
62610;SDS011;48683;48.084;17.272;2023-05-10T02:26:28;4.43;;;4.03;;
62610;SDS011;48683;48.084;17.272;2023-05-10T02:28:55;5.72;;;4.50;;
62610;SDS011;48683;48.084;17.272;2023-05-10T02:31:22;4.65;;;3.97;;
62610;SDS011;48683;48.084;17.272;2023-05-10T02:33:48;5.03;;;4.05;;
62610;SDS011;48683;48.084;17.272;2023-05-10T02:36:14;5.25;;;4.22;;
62610;SDS011;48683;48.084;17.272;2023-05-10T02:38:40;7.07;;;4.20;;
62610;SDS011;48683;48.084;17.272;2023-05-10T02:41:06;8.38;;;4.43;;
62610;SDS011;48683;48.084;17.272;2023-05-10T02:43:33;5.15;;;4.50;;
62610;SDS011;48683;48.084;17.272;2023-05-10T02:46:00;5.30;;;4.10;;
62610;SDS011;48683;48.084;17.272;2023-05-10T02:48:26;5.68;;;3.75;;
62610;SDS011;48683;48.084;17.272;2023-05-10T02:50:52;5.07;;;4.57;;
62610;SDS011;48683;48.084;17.272;2023-05-10T02:53:22;4.88;;;4.38;;
62610;SDS011;48683;48.084;17.272;2023-05-10T02:55:53;5.72;;;4.90;;
62610;SDS011;48683;48.084;17.272;2023-05-10T02:58:22;5.13;;;4.40;;
62610;SDS011;48683;48.084;17.272;2023-05-10T03:00:47;7.20;;;5.00;;
62610;SDS011;48683;48.084;17.272;2023-05-10T03:03:12;5.05;;;4.35;;
62610;SDS011;48683;48.084;17.272;2023-05-10T03:05:38;8.20;;;5.88;;
62610;SDS011;48683;48.084;17.272;2023-05-10T03:08:03;10.23;;;5.32;;
62610;SDS011;48683;48.084;17.272;2023-05-10T03:10:29;9.43;;;5.80;;
62610;SDS011;48683;48.084;17.272;2023-05-10T03:13:16;6.53;;;4.65;;
62610;SDS011;48683;48.084;17.272;2023-05-10T03:18:23;7.82;;;5.03;;
62610;SDS011;48683;48.084;17.272;2023-05-10T03:20:59;7.78;;;5.00;;
62610;SDS011;48683;48.084;17.272;2023-05-10T03:23:34;9.20;;;4.70;;
62610;SDS011;48683;48.084;17.272;2023-05-10T03:26:02;8.75;;;5.43;;
62610;SDS011;48683;48.084;17.272;2023-05-10T03:30:55;10.50;;;5.73;;
62610;SDS011;48683;48.084;17.272;2023-05-10T03:33:21;7.38;;;5.53;;
62610;SDS011;48683;48.084;17.272;2023-05-10T03:35:47;8.25;;;5.38;;
62610;SDS011;48683;48.084;17.272;2023-05-10T03:38:13;7.97;;;5.47;;
62610;SDS011;48683;48.084;17.272;2023-05-10T03:40:38;11.50;;;6.60;;
62610;SDS011;48683;48.084;17.272;2023-05-10T03:43:03;7.20;;;5.35;;
62610;SDS011;48683;48.084;17.272;2023-05-10T03:45:29;8.40;;;5.60;;
62610;SDS011;48683;48.084;17.272;2023-05-10T03:47:55;7.15;;;6.00;;
62610;SDS011;48683;48.084;17.272;2023-05-10T03:50:22;12.40;;;6.28;;
62610;SDS011;48683;48.084;17.272;2023-05-10T03:52:47;8.77;;;5.78;;
62610;SDS011;48683;48.084;17.272;2023-05-10T03:55:13;7.07;;;5.38;;
62610;SDS011;48683;48.084;17.272;2023-05-10T03:57:38;13.20;;;6.75;;
62610;SDS011;48683;48.084;17.272;2023-05-10T04:00:03;6.93;;;5.68;;
62610;SDS011;48683;48.084;17.272;2023-05-10T04:02:29;8.52;;;6.53;;
62610;SDS011;48683;48.084;17.272;2023-05-10T04:04:55;7.10;;;6.38;;
62610;SDS011;48683;48.084;17.272;2023-05-10T04:07:20;12.35;;;6.43;;
62610;SDS011;48683;48.084;17.272;2023-05-10T04:09:46;7.47;;;6.03;;
62610;SDS011;48683;48.084;17.272;2023-05-10T04:12:11;11.13;;;6.90;;
62610;SDS011;48683;48.084;17.272;2023-05-10T04:14:37;10.98;;;7.53;;
62610;SDS011;48683;48.084;17.272;2023-05-10T04:17:02;8.35;;;6.38;;
62610;SDS011;48683;48.084;17.272;2023-05-10T04:19:31;9.65;;;7.10;;
62610;SDS011;48683;48.084;17.272;2023-05-10T04:21:57;10.25;;;7.18;;
62610;SDS011;48683;48.084;17.272;2023-05-10T04:24:23;9.13;;;7.25;;
62610;SDS011;48683;48.084;17.272;2023-05-10T04:26:48;10.40;;;7.60;;
62610;SDS011;48683;48.084;17.272;2023-05-10T04:29:14;9.98;;;7.80;;
62610;SDS011;48683;48.084;17.272;2023-05-10T04:31:39;10.73;;;7.35;;
62610;SDS011;48683;48.084;17.272;2023-05-10T04:34:04;10.05;;;8.68;;
62610;SDS011;48683;48.084;17.272;2023-05-10T04:36:30;11.40;;;9.00;;
62610;SDS011;48683;48.084;17.272;2023-05-10T04:38:57;15.07;;;8.57;;
62610;SDS011;48683;48.084;17.272;2023-05-10T04:41:22;12.25;;;8.48;;
62610;SDS011;48683;48.084;17.272;2023-05-10T04:43:48;10.35;;;8.35;;
62610;SDS011;48683;48.084;17.272;2023-05-10T04:46:14;12.47;;;8.53;;
62610;SDS011;48683;48.084;17.272;2023-05-10T04:48:39;11.65;;;8.43;;
62610;SDS011;48683;48.084;17.272;2023-05-10T04:51:05;13.85;;;8.18;;
62610;SDS011;48683;48.084;17.272;2023-05-10T04:53:31;12.37;;;7.87;;
62610;SDS011;48683;48.084;17.272;2023-05-10T04:55:57;12.63;;;8.35;;
62610;SDS011;48683;48.084;17.272;2023-05-10T04:58:22;13.77;;;8.38;;
62610;SDS011;48683;48.084;17.272;2023-05-10T05:00:47;11.15;;;8.20;;
62610;SDS011;48683;48.084;17.272;2023-05-10T05:03:13;16.50;;;8.35;;
62610;SDS011;48683;48.084;17.272;2023-05-10T05:05:38;11.32;;;8.43;;
62610;SDS011;48683;48.084;17.272;2023-05-10T05:08:03;9.60;;;8.60;;
62610;SDS011;48683;48.084;17.272;2023-05-10T05:10:29;10.57;;;7.88;;
62610;SDS011;48683;48.084;17.272;2023-05-10T05:12:54;10.63;;;7.32;;
62610;SDS011;48683;48.084;17.272;2023-05-10T05:18:15;9.50;;;7.25;;
62610;SDS011;48683;48.084;17.272;2023-05-10T05:20:41;10.70;;;7.15;;
62610;SDS011;48683;48.084;17.272;2023-05-10T05:25:41;10.25;;;7.30;;
62610;SDS011;48683;48.084;17.272;2023-05-10T05:28:07;15.38;;;7.90;;
62610;SDS011;48683;48.084;17.272;2023-05-10T05:30:32;12.77;;;6.75;;
62610;SDS011;48683;48.084;17.272;2023-05-10T05:32:57;10.05;;;7.22;;
62610;SDS011;48683;48.084;17.272;2023-05-10T05:35:23;10.75;;;6.68;;
62610;SDS011;48683;48.084;17.272;2023-05-10T05:38:12;7.20;;;6.03;;
62610;SDS011;48683;48.084;17.272;2023-05-10T05:40:37;7.18;;;6.22;;
62610;SDS011;48683;48.084;17.272;2023-05-10T05:43:03;9.70;;;6.13;;
62610;SDS011;48683;48.084;17.272;2023-05-10T05:45:28;7.10;;;5.55;;
62610;SDS011;48683;48.084;17.272;2023-05-10T05:47:54;8.57;;;6.28;;
62610;SDS011;48683;48.084;17.272;2023-05-10T05:50:19;8.48;;;5.32;;
62610;SDS011;48683;48.084;17.272;2023-05-10T05:52:44;7.07;;;6.03;;
62610;SDS011;48683;48.084;17.272;2023-05-10T05:55:10;7.55;;;5.93;;
62610;SDS011;48683;48.084;17.272;2023-05-10T05:57:35;9.32;;;6.18;;
62610;SDS011;48683;48.084;17.272;2023-05-10T06:00:00;7.28;;;6.45;;
62610;SDS011;48683;48.084;17.272;2023-05-10T06:02:27;7.00;;;5.68;;
62610;SDS011;48683;48.084;17.272;2023-05-10T06:04:53;7.40;;;6.32;;
62610;SDS011;48683;48.084;17.272;2023-05-10T06:07:18;6.85;;;5.82;;
62610;SDS011;48683;48.084;17.272;2023-05-10T06:09:43;7.65;;;6.78;;
62610;SDS011;48683;48.084;17.272;2023-05-10T06:12:09;7.93;;;6.35;;
62610;SDS011;48683;48.084;17.272;2023-05-10T06:14:34;9.55;;;7.35;;
62610;SDS011;48683;48.084;17.272;2023-05-10T06:17:00;10.02;;;6.32;;
62610;SDS011;48683;48.084;17.272;2023-05-10T06:19:25;12.15;;;6.50;;
62610;SDS011;48683;48.084;17.272;2023-05-10T06:21:51;9.38;;;6.35;;
62610;SDS011;48683;48.084;17.272;2023-05-10T06:24:16;10.82;;;6.72;;
62610;SDS011;48683;48.084;17.272;2023-05-10T06:26:42;7.10;;;5.97;;
62610;SDS011;48683;48.084;17.272;2023-05-10T06:29:07;7.47;;;5.90;;
62610;SDS011;48683;48.084;17.272;2023-05-10T06:31:32;9.20;;;5.50;;
62610;SDS011;48683;48.084;17.272;2023-05-10T06:33:58;9.68;;;5.75;;
62610;SDS011;48683;48.084;17.272;2023-05-10T06:36:23;6.85;;;5.50;;
62610;SDS011;48683;48.084;17.272;2023-05-10T06:38:51;10.15;;;5.82;;
62610;SDS011;48683;48.084;17.272;2023-05-10T06:41:16;7.70;;;6.20;;
62610;SDS011;48683;48.084;17.272;2023-05-10T06:43:41;6.82;;;6.13;;
62610;SDS011;48683;48.084;17.272;2023-05-10T06:46:08;10.40;;;5.50;;
62610;SDS011;48683;48.084;17.272;2023-05-10T06:48:33;9.50;;;5.38;;
62610;SDS011;48683;48.084;17.272;2023-05-10T06:50:59;7.00;;;5.53;;
62610;SDS011;48683;48.084;17.272;2023-05-10T06:53:24;7.75;;;5.95;;
62610;SDS011;48683;48.084;17.272;2023-05-10T06:55:49;8.88;;;5.82;;
62610;SDS011;48683;48.084;17.272;2023-05-10T06:58:15;9.05;;;6.32;;
62610;SDS011;48683;48.084;17.272;2023-05-10T07:00:41;6.47;;;5.63;;
62610;SDS011;48683;48.084;17.272;2023-05-10T07:03:08;5.80;;;5.22;;
62610;SDS011;48683;48.084;17.272;2023-05-10T07:05:34;8.53;;;5.60;;
62610;SDS011;48683;48.084;17.272;2023-05-10T07:07:59;7.50;;;5.63;;
62610;SDS011;48683;48.084;17.272;2023-05-10T07:10:25;6.30;;;5.35;;
62610;SDS011;48683;48.084;17.272;2023-05-10T07:12:51;7.60;;;5.30;;
62610;SDS011;48683;48.084;17.272;2023-05-10T07:15:16;5.72;;;5.10;;
62610;SDS011;48683;48.084;17.272;2023-05-10T07:17:42;7.40;;;5.85;;
62610;SDS011;48683;48.084;17.272;2023-05-10T07:20:08;9.05;;;5.63;;
62610;SDS011;48683;48.084;17.272;2023-05-10T07:22:33;8.47;;;5.83;;
62610;SDS011;48683;48.084;17.272;2023-05-10T07:24:59;11.40;;;5.93;;
62610;SDS011;48683;48.084;17.272;2023-05-10T07:27:24;5.53;;;4.88;;
62610;SDS011;48683;48.084;17.272;2023-05-10T07:29:50;6.23;;;4.30;;
62610;SDS011;48683;48.084;17.272;2023-05-10T07:32:15;5.22;;;4.70;;
62610;SDS011;48683;48.084;17.272;2023-05-10T07:34:41;6.17;;;4.67;;
62610;SDS011;48683;48.084;17.272;2023-05-10T07:37:06;6.20;;;4.40;;
62610;SDS011;48683;48.084;17.272;2023-05-10T07:39:32;6.20;;;4.63;;
62610;SDS011;48683;48.084;17.272;2023-05-10T07:41:57;4.70;;;4.30;;
62610;SDS011;48683;48.084;17.272;2023-05-10T07:44:23;8.07;;;4.60;;
62610;SDS011;48683;48.084;17.272;2023-05-10T07:46:48;6.75;;;4.80;;
62610;SDS011;48683;48.084;17.272;2023-05-10T07:49:14;5.40;;;4.13;;
62610;SDS011;48683;48.084;17.272;2023-05-10T07:51:39;6.65;;;3.75;;
62610;SDS011;48683;48.084;17.272;2023-05-10T07:54:05;5.90;;;3.53;;
62610;SDS011;48683;48.084;17.272;2023-05-10T07:56:31;4.13;;;3.72;;
62610;SDS011;48683;48.084;17.272;2023-05-10T07:59:00;4.32;;;3.88;;
62610;SDS011;48683;48.084;17.272;2023-05-10T08:01:32;4.57;;;4.00;;
62610;SDS011;48683;48.084;17.272;2023-05-10T08:03:58;7.32;;;3.85;;
62610;SDS011;48683;48.084;17.272;2023-05-10T08:06:25;6.83;;;3.67;;
62610;SDS011;48683;48.084;17.272;2023-05-10T08:08:52;6.50;;;4.32;;
62610;SDS011;48683;48.084;17.272;2023-05-10T08:13:47;5.75;;;4.00;;
62610;SDS011;48683;48.084;17.272;2023-05-10T08:18:39;6.03;;;3.90;;
62610;SDS011;48683;48.084;17.272;2023-05-10T08:21:05;7.27;;;3.97;;
62610;SDS011;48683;48.084;17.272;2023-05-10T08:23:31;5.13;;;3.77;;
62610;SDS011;48683;48.084;17.272;2023-05-10T08:25:56;3.90;;;3.50;;
62610;SDS011;48683;48.084;17.272;2023-05-10T08:28:22;6.37;;;3.77;;
62610;SDS011;48683;48.084;17.272;2023-05-10T08:30:47;4.83;;;3.00;;
62610;SDS011;48683;48.084;17.272;2023-05-10T08:33:12;4.83;;;3.33;;
62610;SDS011;48683;48.084;17.272;2023-05-10T08:35:38;3.93;;;3.40;;
62610;SDS011;48683;48.084;17.272;2023-05-10T08:38:03;4.07;;;3.23;;
62610;SDS011;48683;48.084;17.272;2023-05-10T08:40:29;7.00;;;3.47;;
62610;SDS011;48683;48.084;17.272;2023-05-10T08:42:55;3.90;;;3.50;;
62610;SDS011;48683;48.084;17.272;2023-05-10T08:45:24;4.07;;;3.72;;
62610;SDS011;48683;48.084;17.272;2023-05-10T08:47:51;4.63;;;3.13;;
62610;SDS011;48683;48.084;17.272;2023-05-10T08:50:18;5.27;;;3.40;;
62610;SDS011;48683;48.084;17.272;2023-05-10T08:52:48;4.22;;;3.55;;
62610;SDS011;48683;48.084;17.272;2023-05-10T08:55:17;3.70;;;3.40;;
62610;SDS011;48683;48.084;17.272;2023-05-10T08:57:43;19.20;;;4.60;;
62610;SDS011;48683;48.084;17.272;2023-05-10T09:00:08;8.67;;;3.97;;
62610;SDS011;48683;48.084;17.272;2023-05-10T09:02:35;4.23;;;3.30;;
62610;SDS011;48683;48.084;17.272;2023-05-10T09:05:02;6.47;;;4.25;;
62610;SDS011;48683;48.084;17.272;2023-05-10T09:07:29;5.45;;;3.95;;
62610;SDS011;48683;48.084;17.272;2023-05-10T09:09:54;6.83;;;3.53;;
62610;SDS011;48683;48.084;17.272;2023-05-10T09:12:20;7.13;;;3.60;;
62610;SDS011;48683;48.084;17.272;2023-05-10T09:14:46;3.60;;;3.30;;
62610;SDS011;48683;48.084;17.272;2023-05-10T09:17:11;4.47;;;3.50;;
62610;SDS011;48683;48.084;17.272;2023-05-10T09:19:37;4.87;;;3.23;;
62610;SDS011;48683;48.084;17.272;2023-05-10T09:22:02;3.67;;;3.30;;
62610;SDS011;48683;48.084;17.272;2023-05-10T09:24:28;2.87;;;2.67;;
62610;SDS011;48683;48.084;17.272;2023-05-10T09:26:55;3.65;;;3.25;;
62610;SDS011;48683;48.084;17.272;2023-05-10T09:29:22;3.00;;;2.65;;
62610;SDS011;48683;48.084;17.272;2023-05-10T09:31:48;5.70;;;3.50;;
62610;SDS011;48683;48.084;17.272;2023-05-10T09:34:20;3.40;;;3.10;;
62610;SDS011;48683;48.084;17.272;2023-05-10T09:36:54;7.30;;;2.83;;
62610;SDS011;48683;48.084;17.272;2023-05-10T09:39:29;3.85;;;2.83;;
62610;SDS011;48683;48.084;17.272;2023-05-10T09:41:55;4.88;;;3.00;;
62610;SDS011;48683;48.084;17.272;2023-05-10T09:44:21;4.37;;;3.00;;
62610;SDS011;48683;48.084;17.272;2023-05-10T09:46:50;3.30;;;2.90;;
62610;SDS011;48683;48.084;17.272;2023-05-10T09:49:17;5.00;;;2.55;;
62610;SDS011;48683;48.084;17.272;2023-05-10T09:51:43;6.95;;;2.90;;
62610;SDS011;48683;48.084;17.272;2023-05-10T09:54:13;4.67;;;2.97;;
62610;SDS011;48683;48.084;17.272;2023-05-10T09:56:40;3.78;;;2.85;;
62610;SDS011;48683;48.084;17.272;2023-05-10T09:59:06;2.70;;;2.50;;
62610;SDS011;48683;48.084;17.272;2023-05-10T10:01:33;3.10;;;2.80;;
62610;SDS011;48683;48.084;17.272;2023-05-10T10:03:59;2.55;;;2.35;;
62610;SDS011;48683;48.084;17.272;2023-05-10T10:06:27;4.55;;;2.63;;
62610;SDS011;48683;48.084;17.272;2023-05-10T10:08:53;6.63;;;2.53;;
62610;SDS011;48683;48.084;17.272;2023-05-10T10:11:19;4.53;;;3.22;;
62610;SDS011;48683;48.084;17.272;2023-05-10T10:13:45;3.10;;;2.80;;
62610;SDS011;48683;48.084;17.272;2023-05-10T10:16:10;5.33;;;2.80;;
62610;SDS011;48683;48.084;17.272;2023-05-10T10:18:36;4.40;;;2.70;;
62610;SDS011;48683;48.084;17.272;2023-05-10T10:21:07;6.78;;;2.83;;
62610;SDS011;48683;48.084;17.272;2023-05-10T10:23:34;3.45;;;2.67;;
62610;SDS011;48683;48.084;17.272;2023-05-10T10:26:00;4.70;;;3.13;;
62610;SDS011;48683;48.084;17.272;2023-05-10T10:31:29;3.33;;;2.67;;
62610;SDS011;48683;48.084;17.272;2023-05-10T10:34:00;3.78;;;2.97;;
62610;SDS011;48683;48.084;17.272;2023-05-10T10:36:30;3.85;;;2.63;;
62610;SDS011;48683;48.084;17.272;2023-05-10T10:38:58;3.63;;;2.88;;
62610;SDS011;48683;48.084;17.272;2023-05-10T10:41:32;5.43;;;2.55;;
62610;SDS011;48683;48.084;17.272;2023-05-10T10:46:59;3.35;;;2.70;;
62610;SDS011;48683;48.084;17.272;2023-05-10T10:49:28;3.10;;;2.83;;
62610;SDS011;48683;48.084;17.272;2023-05-10T10:55:20;4.07;;;2.90;;
62610;SDS011;48683;48.084;17.272;2023-05-10T10:57:51;3.92;;;2.58;;
62610;SDS011;48683;48.084;17.272;2023-05-10T11:00:36;4.63;;;2.60;;
62610;SDS011;48683;48.084;17.272;2023-05-10T11:08:23;3.03;;;2.40;;
62610;SDS011;48683;48.084;17.272;2023-05-10T11:15:57;2.25;;;2.00;;
62610;SDS011;48683;48.084;17.272;2023-05-10T11:18:27;3.65;;;2.53;;
62610;SDS011;48683;48.084;17.272;2023-05-10T11:20:57;5.18;;;2.40;;
62610;SDS011;48683;48.084;17.272;2023-05-10T11:23:28;3.90;;;2.20;;
62610;SDS011;48683;48.084;17.272;2023-05-10T11:25:55;4.38;;;2.10;;
62610;SDS011;48683;48.084;17.272;2023-05-10T11:28:20;3.70;;;1.90;;
62610;SDS011;48683;48.084;17.272;2023-05-10T11:30:46;7.03;;;2.00;;
62610;SDS011;48683;48.084;17.272;2023-05-10T11:33:31;9.93;;;2.03;;
62610;SDS011;48683;48.084;17.272;2023-05-10T11:36:10;3.03;;;2.00;;
62610;SDS011;48683;48.084;17.272;2023-05-10T11:38:36;2.85;;;2.30;;
62610;SDS011;48683;48.084;17.272;2023-05-10T11:41:02;3.87;;;2.23;;
62610;SDS011;48683;48.084;17.272;2023-05-10T11:43:27;3.13;;;1.93;;
62610;SDS011;48683;48.084;17.272;2023-05-10T11:45:55;5.03;;;1.80;;
62610;SDS011;48683;48.084;17.272;2023-05-10T11:48:21;7.50;;;1.97;;
62610;SDS011;48683;48.084;17.272;2023-05-10T11:50:48;7.57;;;2.40;;
62610;SDS011;48683;48.084;17.272;2023-05-10T11:53:14;3.37;;;1.90;;
62610;SDS011;48683;48.084;17.272;2023-05-10T11:55:39;15.40;;;2.93;;
62610;SDS011;48683;48.084;17.272;2023-05-10T11:58:05;2.70;;;2.03;;
62610;SDS011;48683;48.084;17.272;2023-05-10T12:00:30;4.07;;;2.23;;
62610;SDS011;48683;48.084;17.272;2023-05-10T12:02:56;4.63;;;2.15;;
62610;SDS011;48683;48.084;17.272;2023-05-10T12:05:22;4.43;;;2.20;;
62610;SDS011;48683;48.084;17.272;2023-05-10T12:07:47;4.13;;;1.73;;
62610;SDS011;48683;48.084;17.272;2023-05-10T12:10:13;2.00;;;1.80;;
62610;SDS011;48683;48.084;17.272;2023-05-10T12:12:46;5.00;;;1.92;;
62610;SDS011;48683;48.084;17.272;2023-05-10T12:15:19;4.35;;;2.20;;
62610;SDS011;48683;48.084;17.272;2023-05-10T12:17:46;4.05;;;1.90;;
62610;SDS011;48683;48.084;17.272;2023-05-10T12:20:19;3.27;;;2.00;;
62610;SDS011;48683;48.084;17.272;2023-05-10T12:22:50;3.00;;;1.85;;
62610;SDS011;48683;48.084;17.272;2023-05-10T12:25:21;4.00;;;2.05;;
62610;SDS011;48683;48.084;17.272;2023-05-10T12:27:51;3.75;;;1.85;;
62610;SDS011;48683;48.084;17.272;2023-05-10T12:30:22;1.85;;;1.70;;
62610;SDS011;48683;48.084;17.272;2023-05-10T12:32:48;2.00;;;1.80;;
62610;SDS011;48683;48.084;17.272;2023-05-10T12:35:14;1.93;;;1.70;;
62610;SDS011;48683;48.084;17.272;2023-05-10T12:37:41;6.50;;;1.90;;
62610;SDS011;48683;48.084;17.272;2023-05-10T12:42:34;4.15;;;1.80;;
62610;SDS011;48683;48.084;17.272;2023-05-10T12:47:26;7.40;;;2.03;;
62610;SDS011;48683;48.084;17.272;2023-05-10T12:49:51;5.13;;;2.00;;
62610;SDS011;48683;48.084;17.272;2023-05-10T12:52:16;3.30;;;2.00;;
62610;SDS011;48683;48.084;17.272;2023-05-10T12:54:42;7.30;;;2.37;;
62610;SDS011;48683;48.084;17.272;2023-05-10T12:57:07;3.47;;;1.77;;
62610;SDS011;48683;48.084;17.272;2023-05-10T12:59:32;8.03;;;2.50;;
62610;SDS011;48683;48.084;17.272;2023-05-10T13:01:58;11.33;;;2.20;;
62610;SDS011;48683;48.084;17.272;2023-05-10T13:04:23;3.93;;;2.13;;
62610;SDS011;48683;48.084;17.272;2023-05-10T13:06:48;2.07;;;1.80;;
62610;SDS011;48683;48.084;17.272;2023-05-10T13:09:14;4.07;;;2.50;;
62610;SDS011;48683;48.084;17.272;2023-05-10T13:11:40;3.83;;;2.10;;
62610;SDS011;48683;48.084;17.272;2023-05-10T13:14:45;3.83;;;1.80;;
62610;SDS011;48683;48.084;17.272;2023-05-10T13:17:10;3.33;;;1.60;;
62610;SDS011;48683;48.084;17.272;2023-05-10T13:19:36;2.60;;;1.70;;
62610;SDS011;48683;48.084;17.272;2023-05-10T13:22:01;4.73;;;1.90;;
62610;SDS011;48683;48.084;17.272;2023-05-10T13:24:26;2.83;;;1.80;;
62610;SDS011;48683;48.084;17.272;2023-05-10T13:26:52;5.53;;;1.90;;
62610;SDS011;48683;48.084;17.272;2023-05-10T13:29:17;1.97;;;1.33;;
62610;SDS011;48683;48.084;17.272;2023-05-10T13:31:43;5.87;;;1.70;;
62610;SDS011;48683;48.084;17.272;2023-05-10T13:34:08;2.40;;;1.50;;
62610;SDS011;48683;48.084;17.272;2023-05-10T13:36:33;5.90;;;2.17;;
62610;SDS011;48683;48.084;17.272;2023-05-10T13:38:59;2.57;;;2.20;;
62610;SDS011;48683;48.084;17.272;2023-05-10T13:41:27;3.38;;;1.60;;
62610;SDS011;48683;48.084;17.272;2023-05-10T13:43:52;4.53;;;1.87;;
62610;SDS011;48683;48.084;17.272;2023-05-10T13:46:18;2.80;;;2.03;;
62610;SDS011;48683;48.084;17.272;2023-05-10T13:48:44;2.92;;;2.00;;
62610;SDS011;48683;48.084;17.272;2023-05-10T13:51:09;4.33;;;1.80;;
62610;SDS011;48683;48.084;17.272;2023-05-10T13:53:35;3.63;;;1.70;;
62610;SDS011;48683;48.084;17.272;2023-05-10T13:56:00;2.93;;;1.80;;
62610;SDS011;48683;48.084;17.272;2023-05-10T14:00:52;3.60;;;1.77;;
62610;SDS011;48683;48.084;17.272;2023-05-10T14:03:17;3.13;;;1.93;;
62610;SDS011;48683;48.084;17.272;2023-05-10T14:05:42;7.33;;;1.80;;
62610;SDS011;48683;48.084;17.272;2023-05-10T14:08:09;4.28;;;1.80;;
62610;SDS011;48683;48.084;17.272;2023-05-10T14:10:35;3.53;;;1.90;;
62610;SDS011;48683;48.084;17.272;2023-05-10T14:13:01;2.55;;;1.88;;
62610;SDS011;48683;48.084;17.272;2023-05-10T14:15:47;6.35;;;2.08;;
62610;SDS011;48683;48.084;17.272;2023-05-10T14:18:12;3.30;;;2.00;;
62610;SDS011;48683;48.084;17.272;2023-05-10T14:20:38;5.70;;;2.30;;
62610;SDS011;48683;48.084;17.272;2023-05-10T14:23:03;2.37;;;1.70;;
62610;SDS011;48683;48.084;17.272;2023-05-10T14:25:28;1.70;;;1.60;;
62610;SDS011;48683;48.084;17.272;2023-05-10T14:27:54;3.70;;;1.70;;
62610;SDS011;48683;48.084;17.272;2023-05-10T14:30:19;4.37;;;1.90;;
62610;SDS011;48683;48.084;17.272;2023-05-10T14:32:45;3.57;;;1.80;;
62610;SDS011;48683;48.084;17.272;2023-05-10T14:35:11;2.83;;;1.73;;
62610;SDS011;48683;48.084;17.272;2023-05-10T14:40:02;6.93;;;2.03;;
62610;SDS011;48683;48.084;17.272;2023-05-10T14:42:29;1.90;;;1.80;;
62610;SDS011;48683;48.084;17.272;2023-05-10T14:44:54;8.83;;;2.27;;
62610;SDS011;48683;48.084;17.272;2023-05-10T14:47:20;4.60;;;1.80;;
62610;SDS011;48683;48.084;17.272;2023-05-10T14:49:45;4.20;;;2.10;;
62610;SDS011;48683;48.084;17.272;2023-05-10T14:52:10;2.73;;;1.77;;
62610;SDS011;48683;48.084;17.272;2023-05-10T14:54:37;5.00;;;2.20;;
62610;SDS011;48683;48.084;17.272;2023-05-10T14:57:02;3.90;;;2.20;;
62610;SDS011;48683;48.084;17.272;2023-05-10T14:59:28;4.70;;;2.23;;
62610;SDS011;48683;48.084;17.272;2023-05-10T15:01:53;4.70;;;2.00;;
62610;SDS011;48683;48.084;17.272;2023-05-10T15:04:18;2.50;;;2.30;;
62610;SDS011;48683;48.084;17.272;2023-05-10T15:06:43;6.20;;;2.30;;
62610;SDS011;48683;48.084;17.272;2023-05-10T15:09:09;3.93;;;2.03;;
62610;SDS011;48683;48.084;17.272;2023-05-10T15:11:34;3.37;;;1.97;;
62610;SDS011;48683;48.084;17.272;2023-05-10T15:14:20;6.37;;;2.27;;
62610;SDS011;48683;48.084;17.272;2023-05-10T15:16:45;2.93;;;2.10;;
62610;SDS011;48683;48.084;17.272;2023-05-10T15:19:10;4.63;;;2.10;;
62610;SDS011;48683;48.084;17.272;2023-05-10T15:21:36;2.87;;;2.10;;
62610;SDS011;48683;48.084;17.272;2023-05-10T15:24:06;3.53;;;2.38;;
62610;SDS011;48683;48.084;17.272;2023-05-10T15:26:32;2.92;;;1.67;;
62610;SDS011;48683;48.084;17.272;2023-05-10T15:28:57;3.80;;;2.40;;
62610;SDS011;48683;48.084;17.272;2023-05-10T15:31:23;4.20;;;2.13;;
62610;SDS011;48683;48.084;17.272;2023-05-10T15:33:48;2.43;;;2.10;;